sensor_id;sensor_type;location;lat;lon;timestamp;P1;durP1;ratioP1;P2;durP2;ratioP2
9597;SDS011;4837;50.890;4.724;2023-03-01T00:02:25;17.27;;;12.93;;
9597;SDS011;4837;50.890;4.724;2023-03-01T00:04:51;18.47;;;12.47;;
9597;SDS011;4837;50.890;4.724;2023-03-01T00:07:17;18.07;;;13.20;;
9597;SDS011;4837;50.890;4.724;2023-03-01T00:09:44;19.53;;;13.67;;
9597;SDS011;4837;50.890;4.724;2023-03-01T00:12:11;19.47;;;13.57;;
9597;SDS011;4837;50.890;4.724;2023-03-01T00:14:37;16.87;;;13.43;;
9597;SDS011;4837;50.890;4.724;2023-03-01T00:17:03;15.90;;;13.43;;
9597;SDS011;4837;50.890;4.724;2023-03-01T00:19:29;17.87;;;12.73;;
9597;SDS011;4837;50.890;4.724;2023-03-01T00:21:55;17.97;;;13.10;;
9597;SDS011;4837;50.890;4.724;2023-03-01T00:24:21;17.97;;;12.97;;
9597;SDS011;4837;50.890;4.724;2023-03-01T00:26:47;17.47;;;12.90;;
9597;SDS011;4837;50.890;4.724;2023-03-01T00:29:13;16.80;;;13.53;;
9597;SDS011;4837;50.890;4.724;2023-03-01T00:31:39;14.43;;;12.70;;
9597;SDS011;4837;50.890;4.724;2023-03-01T00:34:05;16.57;;;12.93;;
9597;SDS011;4837;50.890;4.724;2023-03-01T00:36:33;17.60;;;12.47;;
9597;SDS011;4837;50.890;4.724;2023-03-01T00:38:59;16.13;;;13.07;;
9597;SDS011;4837;50.890;4.724;2023-03-01T00:41:26;14.80;;;12.60;;
9597;SDS011;4837;50.890;4.724;2023-03-01T00:43:52;21.00;;;13.60;;
9597;SDS011;4837;50.890;4.724;2023-03-01T00:46:19;15.77;;;12.63;;
9597;SDS011;4837;50.890;4.724;2023-03-01T00:48:46;16.43;;;13.20;;
9597;SDS011;4837;50.890;4.724;2023-03-01T00:51:14;18.27;;;12.93;;
9597;SDS011;4837;50.890;4.724;2023-03-01T00:53:40;15.93;;;13.13;;
9597;SDS011;4837;50.890;4.724;2023-03-01T00:56:07;18.67;;;13.53;;
9597;SDS011;4837;50.890;4.724;2023-03-01T00:58:34;17.53;;;13.20;;
9597;SDS011;4837;50.890;4.724;2023-03-01T01:01:00;15.63;;;12.60;;
9597;SDS011;4837;50.890;4.724;2023-03-01T01:03:26;17.03;;;13.20;;
9597;SDS011;4837;50.890;4.724;2023-03-01T01:05:52;16.47;;;13.40;;
9597;SDS011;4837;50.890;4.724;2023-03-01T01:08:19;18.40;;;12.90;;
9597;SDS011;4837;50.890;4.724;2023-03-01T01:10:45;16.47;;;13.23;;
9597;SDS011;4837;50.890;4.724;2023-03-01T01:13:12;18.33;;;12.60;;
9597;SDS011;4837;50.890;4.724;2023-03-01T01:15:38;16.63;;;13.13;;
9597;SDS011;4837;50.890;4.724;2023-03-01T01:18:04;15.97;;;12.40;;
9597;SDS011;4837;50.890;4.724;2023-03-01T01:20:31;18.00;;;13.17;;
9597;SDS011;4837;50.890;4.724;2023-03-01T01:22:57;15.97;;;12.73;;
9597;SDS011;4837;50.890;4.724;2023-03-01T01:25:23;16.23;;;13.10;;
9597;SDS011;4837;50.890;4.724;2023-03-01T01:27:52;16.60;;;13.17;;
9597;SDS011;4837;50.890;4.724;2023-03-01T01:30:18;16.80;;;13.03;;
9597;SDS011;4837;50.890;4.724;2023-03-01T01:32:44;16.57;;;13.07;;
9597;SDS011;4837;50.890;4.724;2023-03-01T01:35:10;16.40;;;12.83;;
9597;SDS011;4837;50.890;4.724;2023-03-01T01:37:36;17.57;;;12.63;;
9597;SDS011;4837;50.890;4.724;2023-03-01T01:40:02;15.87;;;12.97;;
9597;SDS011;4837;50.890;4.724;2023-03-01T01:42:29;16.67;;;12.57;;
9597;SDS011;4837;50.890;4.724;2023-03-01T01:47:40;16.23;;;11.80;;
9597;SDS011;4837;50.890;4.724;2023-03-01T01:50:08;16.77;;;12.57;;
9597;SDS011;4837;50.890;4.724;2023-03-01T01:52:40;15.20;;;12.30;;
9597;SDS011;4837;50.890;4.724;2023-03-01T01:55:16;15.60;;;12.33;;
9597;SDS011;4837;50.890;4.724;2023-03-01T01:57:47;16.47;;;12.13;;
9597;SDS011;4837;50.890;4.724;2023-03-01T02:00:15;15.60;;;12.40;;
9597;SDS011;4837;50.890;4.724;2023-03-01T02:02:44;14.57;;;12.10;;
9597;SDS011;4837;50.890;4.724;2023-03-01T02:05:15;17.83;;;13.67;;
9597;SDS011;4837;50.890;4.724;2023-03-01T02:07:43;15.33;;;11.90;;
9597;SDS011;4837;50.890;4.724;2023-03-01T02:10:09;16.77;;;12.07;;
9597;SDS011;4837;50.890;4.724;2023-03-01T02:12:35;14.57;;;11.90;;
9597;SDS011;4837;50.890;4.724;2023-03-01T02:15:02;14.60;;;12.13;;
9597;SDS011;4837;50.890;4.724;2023-03-01T02:17:28;14.20;;;11.13;;
9597;SDS011;4837;50.890;4.724;2023-03-01T02:22:39;15.37;;;11.13;;
9597;SDS011;4837;50.890;4.724;2023-03-01T02:30:25;15.53;;;11.43;;
9597;SDS011;4837;50.890;4.724;2023-03-01T02:32:52;16.23;;;11.83;;
9597;SDS011;4837;50.890;4.724;2023-03-01T02:35:19;13.83;;;11.10;;
9597;SDS011;4837;50.890;4.724;2023-03-01T02:37:45;14.43;;;11.13;;
9597;SDS011;4837;50.890;4.724;2023-03-01T02:40:12;14.73;;;11.27;;
9597;SDS011;4837;50.890;4.724;2023-03-01T02:42:52;13.67;;;11.03;;
9597;SDS011;4837;50.890;4.724;2023-03-01T02:45:19;14.20;;;11.03;;
9597;SDS011;4837;50.890;4.724;2023-03-01T02:47:46;17.07;;;11.03;;
9597;SDS011;4837;50.890;4.724;2023-03-01T02:50:23;14.17;;;11.47;;
9597;SDS011;4837;50.890;4.724;2023-03-01T02:52:59;13.60;;;10.97;;
9597;SDS011;4837;50.890;4.724;2023-03-01T02:55:27;14.83;;;11.67;;
9597;SDS011;4837;50.890;4.724;2023-03-01T02:57:53;13.40;;;10.97;;
9597;SDS011;4837;50.890;4.724;2023-03-01T03:00:23;14.70;;;11.20;;
9597;SDS011;4837;50.890;4.724;2023-03-01T03:02:51;19.17;;;11.73;;
9597;SDS011;4837;50.890;4.724;2023-03-01T03:05:20;15.40;;;11.80;;
9597;SDS011;4837;50.890;4.724;2023-03-01T03:07:47;15.90;;;11.87;;
9597;SDS011;4837;50.890;4.724;2023-03-01T03:10:14;20.20;;;12.77;;
9597;SDS011;4837;50.890;4.724;2023-03-01T03:12:41;15.33;;;12.27;;
9597;SDS011;4837;50.890;4.724;2023-03-01T03:15:07;14.10;;;11.87;;
9597;SDS011;4837;50.890;4.724;2023-03-01T03:17:37;17.33;;;12.30;;
9597;SDS011;4837;50.890;4.724;2023-03-01T03:20:04;17.67;;;12.47;;
9597;SDS011;4837;50.890;4.724;2023-03-01T03:22:31;16.93;;;11.70;;
9597;SDS011;4837;50.890;4.724;2023-03-01T03:24:59;17.03;;;11.80;;
9597;SDS011;4837;50.890;4.724;2023-03-01T03:27:25;18.97;;;12.27;;
9597;SDS011;4837;50.890;4.724;2023-03-01T03:29:52;18.03;;;12.43;;
9597;SDS011;4837;50.890;4.724;2023-03-01T03:32:18;19.87;;;12.50;;
9597;SDS011;4837;50.890;4.724;2023-03-01T03:34:44;16.40;;;11.60;;
9597;SDS011;4837;50.890;4.724;2023-03-01T03:37:10;18.67;;;12.77;;
9597;SDS011;4837;50.890;4.724;2023-03-01T03:39:56;15.50;;;12.50;;
9597;SDS011;4837;50.890;4.724;2023-03-01T03:42:23;16.07;;;12.00;;
9597;SDS011;4837;50.890;4.724;2023-03-01T03:44:49;16.40;;;12.17;;
9597;SDS011;4837;50.890;4.724;2023-03-01T03:47:15;16.53;;;12.13;;
9597;SDS011;4837;50.890;4.724;2023-03-01T03:49:41;16.47;;;12.43;;
9597;SDS011;4837;50.890;4.724;2023-03-01T03:52:07;16.33;;;12.33;;
9597;SDS011;4837;50.890;4.724;2023-03-01T03:54:39;16.73;;;12.57;;
9597;SDS011;4837;50.890;4.724;2023-03-01T03:57:05;15.57;;;11.50;;
9597;SDS011;4837;50.890;4.724;2023-03-01T03:59:31;15.37;;;11.80;;
9597;SDS011;4837;50.890;4.724;2023-03-01T04:01:58;16.60;;;12.27;;
9597;SDS011;4837;50.890;4.724;2023-03-01T04:04:24;15.30;;;11.47;;
9597;SDS011;4837;50.890;4.724;2023-03-01T04:06:50;13.87;;;11.47;;
9597;SDS011;4837;50.890;4.724;2023-03-01T04:09:16;15.63;;;11.90;;
9597;SDS011;4837;50.890;4.724;2023-03-01T04:11:42;14.63;;;11.63;;
9597;SDS011;4837;50.890;4.724;2023-03-01T04:14:09;16.47;;;11.73;;
9597;SDS011;4837;50.890;4.724;2023-03-01T04:16:35;15.37;;;11.70;;
9597;SDS011;4837;50.890;4.724;2023-03-01T04:19:01;17.20;;;11.20;;
9597;SDS011;4837;50.890;4.724;2023-03-01T04:21:28;16.30;;;11.03;;
9597;SDS011;4837;50.890;4.724;2023-03-01T04:23:54;13.93;;;11.13;;
9597;SDS011;4837;50.890;4.724;2023-03-01T04:26:20;16.30;;;11.33;;
9597;SDS011;4837;50.890;4.724;2023-03-01T04:28:47;15.23;;;11.10;;
9597;SDS011;4837;50.890;4.724;2023-03-01T04:31:16;18.30;;;12.33;;
9597;SDS011;4837;50.890;4.724;2023-03-01T04:33:47;16.80;;;10.80;;
9597;SDS011;4837;50.890;4.724;2023-03-01T04:36:14;15.60;;;11.37;;
9597;SDS011;4837;50.890;4.724;2023-03-01T04:38:41;16.87;;;11.80;;
9597;SDS011;4837;50.890;4.724;2023-03-01T04:41:08;14.50;;;11.63;;
9597;SDS011;4837;50.890;4.724;2023-03-01T04:43:35;15.83;;;11.70;;
9597;SDS011;4837;50.890;4.724;2023-03-01T04:46:02;15.37;;;11.93;;
9597;SDS011;4837;50.890;4.724;2023-03-01T04:48:28;16.43;;;11.30;;
9597;SDS011;4837;50.890;4.724;2023-03-01T04:50:54;15.13;;;11.40;;
9597;SDS011;4837;50.890;4.724;2023-03-01T04:53:21;16.60;;;11.10;;
9597;SDS011;4837;50.890;4.724;2023-03-01T04:55:47;15.30;;;11.67;;
9597;SDS011;4837;50.890;4.724;2023-03-01T04:58:13;17.10;;;10.93;;
9597;SDS011;4837;50.890;4.724;2023-03-01T05:00:39;16.40;;;11.10;;
9597;SDS011;4837;50.890;4.724;2023-03-01T05:03:05;14.73;;;11.87;;
9597;SDS011;4837;50.890;4.724;2023-03-01T05:05:35;18.27;;;11.70;;
9597;SDS011;4837;50.890;4.724;2023-03-01T05:08:02;15.80;;;10.87;;
9597;SDS011;4837;50.890;4.724;2023-03-01T05:10:30;14.63;;;10.87;;
9597;SDS011;4837;50.890;4.724;2023-03-01T05:12:58;15.07;;;10.53;;
9597;SDS011;4837;50.890;4.724;2023-03-01T05:15:25;13.23;;;10.43;;
9597;SDS011;4837;50.890;4.724;2023-03-01T05:17:52;15.17;;;10.70;;
9597;SDS011;4837;50.890;4.724;2023-03-01T05:20:19;16.17;;;11.03;;
9597;SDS011;4837;50.890;4.724;2023-03-01T05:22:48;18.53;;;10.27;;
9597;SDS011;4837;50.890;4.724;2023-03-01T05:25:14;16.40;;;10.27;;
9597;SDS011;4837;50.890;4.724;2023-03-01T05:27:40;14.57;;;10.63;;
9597;SDS011;4837;50.890;4.724;2023-03-01T05:30:06;13.90;;;10.73;;
9597;SDS011;4837;50.890;4.724;2023-03-01T05:32:43;12.63;;;10.43;;
9597;SDS011;4837;50.890;4.724;2023-03-01T05:35:14;14.07;;;10.10;;
9597;SDS011;4837;50.890;4.724;2023-03-01T05:37:45;15.17;;;11.23;;
9597;SDS011;4837;50.890;4.724;2023-03-01T05:40:14;13.70;;;10.33;;
9597;SDS011;4837;50.890;4.724;2023-03-01T05:42:44;13.67;;;10.93;;
9597;SDS011;4837;50.890;4.724;2023-03-01T05:45:14;18.33;;;11.43;;
9597;SDS011;4837;50.890;4.724;2023-03-01T05:47:41;18.00;;;12.33;;
9597;SDS011;4837;50.890;4.724;2023-03-01T05:50:13;22.43;;;11.93;;
9597;SDS011;4837;50.890;4.724;2023-03-01T05:52:48;17.30;;;11.43;;
9597;SDS011;4837;50.890;4.724;2023-03-01T05:55:17;15.10;;;11.10;;
9597;SDS011;4837;50.890;4.724;2023-03-01T05:57:44;18.50;;;11.10;;
9597;SDS011;4837;50.890;4.724;2023-03-01T06:00:10;17.13;;;11.20;;
9597;SDS011;4837;50.890;4.724;2023-03-01T06:02:37;16.40;;;11.53;;
9597;SDS011;4837;50.890;4.724;2023-03-01T06:05:07;16.70;;;11.43;;
9597;SDS011;4837;50.890;4.724;2023-03-01T06:07:34;17.47;;;11.23;;
9597;SDS011;4837;50.890;4.724;2023-03-01T06:10:01;14.87;;;10.93;;
9597;SDS011;4837;50.890;4.724;2023-03-01T06:12:32;16.43;;;10.90;;
9597;SDS011;4837;50.890;4.724;2023-03-01T06:14:58;18.20;;;11.40;;
9597;SDS011;4837;50.890;4.724;2023-03-01T06:17:24;15.50;;;12.07;;
9597;SDS011;4837;50.890;4.724;2023-03-01T06:19:50;18.70;;;11.47;;
9597;SDS011;4837;50.890;4.724;2023-03-01T06:22:16;15.90;;;11.47;;
9597;SDS011;4837;50.890;4.724;2023-03-01T06:24:42;15.67;;;11.27;;
9597;SDS011;4837;50.890;4.724;2023-03-01T06:27:08;18.73;;;12.83;;
9597;SDS011;4837;50.890;4.724;2023-03-01T06:29:33;25.23;;;13.57;;
9597;SDS011;4837;50.890;4.724;2023-03-01T06:31:59;17.97;;;13.40;;
9597;SDS011;4837;50.890;4.724;2023-03-01T06:34:25;19.23;;;13.50;;
9597;SDS011;4837;50.890;4.724;2023-03-01T06:36:51;17.00;;;12.53;;
9597;SDS011;4837;50.890;4.724;2023-03-01T06:39:16;18.60;;;12.80;;
9597;SDS011;4837;50.890;4.724;2023-03-01T06:41:43;19.23;;;12.77;;
9597;SDS011;4837;50.890;4.724;2023-03-01T06:44:09;16.53;;;12.03;;
9597;SDS011;4837;50.890;4.724;2023-03-01T06:46:35;25.47;;;12.60;;
9597;SDS011;4837;50.890;4.724;2023-03-01T06:49:01;20.13;;;13.00;;
9597;SDS011;4837;50.890;4.724;2023-03-01T06:51:29;28.40;;;12.50;;
9597;SDS011;4837;50.890;4.724;2023-03-01T06:53:55;15.03;;;11.40;;
9597;SDS011;4837;50.890;4.724;2023-03-01T06:56:21;17.17;;;12.07;;
9597;SDS011;4837;50.890;4.724;2023-03-01T06:58:47;20.23;;;11.27;;
9597;SDS011;4837;50.890;4.724;2023-03-01T07:01:13;19.00;;;12.27;;
9597;SDS011;4837;50.890;4.724;2023-03-01T07:03:38;17.20;;;11.30;;
9597;SDS011;4837;50.890;4.724;2023-03-01T07:06:07;19.03;;;12.13;;
9597;SDS011;4837;50.890;4.724;2023-03-01T07:08:34;19.20;;;11.73;;
9597;SDS011;4837;50.890;4.724;2023-03-01T07:11:00;15.87;;;11.00;;
9597;SDS011;4837;50.890;4.724;2023-03-01T07:13:27;16.03;;;12.03;;
9597;SDS011;4837;50.890;4.724;2023-03-01T07:15:53;20.07;;;11.80;;
9597;SDS011;4837;50.890;4.724;2023-03-01T07:18:19;18.07;;;11.13;;
9597;SDS011;4837;50.890;4.724;2023-03-01T07:20:46;21.17;;;12.57;;
9597;SDS011;4837;50.890;4.724;2023-03-01T07:23:12;15.93;;;11.73;;
9597;SDS011;4837;50.890;4.724;2023-03-01T07:25:38;17.17;;;12.13;;
9597;SDS011;4837;50.890;4.724;2023-03-01T07:28:04;15.40;;;11.97;;
9597;SDS011;4837;50.890;4.724;2023-03-01T07:30:30;23.53;;;13.63;;
9597;SDS011;4837;50.890;4.724;2023-03-01T07:32:57;17.77;;;12.57;;
9597;SDS011;4837;50.890;4.724;2023-03-01T07:35:24;16.53;;;11.97;;
9597;SDS011;4837;50.890;4.724;2023-03-01T07:37:51;19.07;;;12.80;;
9597;SDS011;4837;50.890;4.724;2023-03-01T07:40:18;18.23;;;12.47;;
9597;SDS011;4837;50.890;4.724;2023-03-01T07:42:44;16.50;;;13.13;;
9597;SDS011;4837;50.890;4.724;2023-03-01T07:45:10;17.30;;;12.43;;
9597;SDS011;4837;50.890;4.724;2023-03-01T07:47:38;16.23;;;12.27;;
9597;SDS011;4837;50.890;4.724;2023-03-01T07:50:04;16.77;;;12.43;;
9597;SDS011;4837;50.890;4.724;2023-03-01T07:52:31;16.23;;;12.47;;
9597;SDS011;4837;50.890;4.724;2023-03-01T07:54:57;17.03;;;11.93;;
9597;SDS011;4837;50.890;4.724;2023-03-01T07:57:23;15.67;;;11.17;;
9597;SDS011;4837;50.890;4.724;2023-03-01T07:59:49;13.93;;;11.40;;
9597;SDS011;4837;50.890;4.724;2023-03-01T08:02:15;14.53;;;10.90;;
9597;SDS011;4837;50.890;4.724;2023-03-01T08:04:42;15.20;;;11.80;;
9597;SDS011;4837;50.890;4.724;2023-03-01T08:07:08;15.97;;;11.30;;
9597;SDS011;4837;50.890;4.724;2023-03-01T08:09:34;16.77;;;11.20;;
9597;SDS011;4837;50.890;4.724;2023-03-01T08:12:02;14.53;;;10.80;;
9597;SDS011;4837;50.890;4.724;2023-03-01T08:14:29;13.67;;;11.23;;
9597;SDS011;4837;50.890;4.724;2023-03-01T08:16:55;14.20;;;10.47;;
9597;SDS011;4837;50.890;4.724;2023-03-01T08:19:21;14.27;;;11.97;;
9597;SDS011;4837;50.890;4.724;2023-03-01T08:21:48;16.67;;;11.97;;
9597;SDS011;4837;50.890;4.724;2023-03-01T08:24:14;14.90;;;11.10;;
9597;SDS011;4837;50.890;4.724;2023-03-01T08:26:40;15.63;;;10.60;;
9597;SDS011;4837;50.890;4.724;2023-03-01T08:29:06;13.73;;;10.53;;
9597;SDS011;4837;50.890;4.724;2023-03-01T08:31:33;15.90;;;11.53;;
9597;SDS011;4837;50.890;4.724;2023-03-01T08:34:13;14.10;;;11.13;;
9597;SDS011;4837;50.890;4.724;2023-03-01T08:36:40;17.70;;;13.43;;
9597;SDS011;4837;50.890;4.724;2023-03-01T08:39:07;15.27;;;12.60;;
9597;SDS011;4837;50.890;4.724;2023-03-01T08:41:33;21.33;;;13.57;;
9597;SDS011;4837;50.890;4.724;2023-03-01T08:44:00;20.70;;;13.90;;
9597;SDS011;4837;50.890;4.724;2023-03-01T08:46:27;18.20;;;14.13;;
9597;SDS011;4837;50.890;4.724;2023-03-01T08:48:53;15.90;;;11.77;;
9597;SDS011;4837;50.890;4.724;2023-03-01T08:51:19;14.87;;;11.83;;
9597;SDS011;4837;50.890;4.724;2023-03-01T08:53:46;14.83;;;10.47;;
9597;SDS011;4837;50.890;4.724;2023-03-01T08:56:12;15.70;;;10.97;;
9597;SDS011;4837;50.890;4.724;2023-03-01T08:58:39;12.90;;;11.10;;
9597;SDS011;4837;50.890;4.724;2023-03-01T09:01:09;14.80;;;11.40;;
9597;SDS011;4837;50.890;4.724;2023-03-01T09:03:35;14.87;;;10.97;;
9597;SDS011;4837;50.890;4.724;2023-03-01T09:06:02;16.97;;;10.97;;
9597;SDS011;4837;50.890;4.724;2023-03-01T09:08:29;17.63;;;11.40;;
9597;SDS011;4837;50.890;4.724;2023-03-01T09:10:55;18.07;;;11.43;;
9597;SDS011;4837;50.890;4.724;2023-03-01T09:13:21;19.07;;;11.80;;
9597;SDS011;4837;50.890;4.724;2023-03-01T09:15:52;16.70;;;10.97;;
9597;SDS011;4837;50.890;4.724;2023-03-01T09:18:18;17.73;;;12.43;;
9597;SDS011;4837;50.890;4.724;2023-03-01T09:20:44;16.07;;;11.47;;
9597;SDS011;4837;50.890;4.724;2023-03-01T09:23:10;15.03;;;11.07;;
9597;SDS011;4837;50.890;4.724;2023-03-01T09:25:37;13.20;;;10.25;;
9597;SDS011;4837;50.890;4.724;2023-03-01T09:28:03;18.50;;;12.75;;
9597;SDS011;4837;50.890;4.724;2023-03-01T09:30:29;21.90;;;13.50;;
9597;SDS011;4837;50.890;4.724;2023-03-01T09:32:58;11.88;;;10.18;;
9597;SDS011;4837;50.890;4.724;2023-03-01T09:35:24;11.85;;;10.05;;
9597;SDS011;4837;50.890;4.724;2023-03-01T09:37:50;17.55;;;11.90;;
9597;SDS011;4837;50.890;4.724;2023-03-01T09:40:18;14.95;;;10.98;;
9597;SDS011;4837;50.890;4.724;2023-03-01T09:43:45;10.60;;;9.50;;
9597;SDS011;4837;50.890;4.724;2023-03-01T09:45:41;10.20;;;8.98;;
9597;SDS011;4837;50.890;4.724;2023-03-01T09:48:11;10.93;;;8.70;;
9597;SDS011;4837;50.890;4.724;2023-03-01T09:50:39;10.88;;;9.77;;
9597;SDS011;4837;50.890;4.724;2023-03-01T09:53:09;11.75;;;9.63;;
9597;SDS011;4837;50.890;4.724;2023-03-01T09:55:59;14.07;;;11.93;;
9597;SDS011;4837;50.890;4.724;2023-03-01T09:58:29;11.45;;;9.25;;
9597;SDS011;4837;50.890;4.724;2023-03-01T10:00:59;11.25;;;9.75;;
9597;SDS011;4837;50.890;4.724;2023-03-01T10:03:34;14.18;;;9.77;;
9597;SDS011;4837;50.890;4.724;2023-03-01T10:06:08;12.00;;;10.07;;
9597;SDS011;4837;50.890;4.724;2023-03-01T10:08:40;12.70;;;9.38;;
9597;SDS011;4837;50.890;4.724;2023-03-01T10:11:19;11.35;;;10.15;;
9597;SDS011;4837;50.890;4.724;2023-03-01T10:14:03;11.63;;;9.82;;
9597;SDS011;4837;50.890;4.724;2023-03-01T10:19:00;10.80;;;9.68;;
9597;SDS011;4837;50.890;4.724;2023-03-01T10:21:27;11.55;;;10.35;;
9597;SDS011;4837;50.890;4.724;2023-03-01T10:23:59;13.77;;;10.52;;
9597;SDS011;4837;50.890;4.724;2023-03-01T10:26:35;11.15;;;9.32;;
9597;SDS011;4837;50.890;4.724;2023-03-01T10:29:06;11.50;;;9.77;;
9597;SDS011;4837;50.890;4.724;2023-03-01T10:34:02;12.25;;;10.23;;
9597;SDS011;4837;50.890;4.724;2023-03-01T10:36:28;11.10;;;9.20;;
9597;SDS011;4837;50.890;4.724;2023-03-01T10:38:57;10.73;;;9.30;;
9597;SDS011;4837;50.890;4.724;2023-03-01T10:41:25;11.35;;;9.90;;
9597;SDS011;4837;50.890;4.724;2023-03-01T10:43:56;10.77;;;9.43;;
9597;SDS011;4837;50.890;4.724;2023-03-01T10:51:45;14.65;;;9.75;;
9597;SDS011;4837;50.890;4.724;2023-03-01T10:54:31;10.75;;;9.50;;
9597;SDS011;4837;50.890;4.724;2023-03-01T10:57:01;10.50;;;9.25;;
9597;SDS011;4837;50.890;4.724;2023-03-01T10:59:29;11.68;;;9.23;;
9597;SDS011;4837;50.890;4.724;2023-03-01T11:04:55;12.07;;;9.32;;
9597;SDS011;4837;50.890;4.724;2023-03-01T11:07:21;10.68;;;8.38;;
9597;SDS011;4837;50.890;4.724;2023-03-01T11:09:48;11.20;;;8.95;;
9597;SDS011;4837;50.890;4.724;2023-03-01T11:12:14;10.60;;;8.48;;
9597;SDS011;4837;50.890;4.724;2023-03-01T11:14:48;10.48;;;9.38;;
9597;SDS011;4837;50.890;4.724;2023-03-01T11:17:18;10.77;;;9.57;;
9597;SDS011;4837;50.890;4.724;2023-03-01T11:20:01;12.43;;;9.80;;
9597;SDS011;4837;50.890;4.724;2023-03-01T11:22:29;9.48;;;8.48;;
9597;SDS011;4837;50.890;4.724;2023-03-01T11:24:56;10.15;;;8.90;;
9597;SDS011;4837;50.890;4.724;2023-03-01T11:30:05;10.48;;;8.95;;
9597;SDS011;4837;50.890;4.724;2023-03-01T11:32:35;9.55;;;8.55;;
9597;SDS011;4837;50.890;4.724;2023-03-01T11:40:33;10.40;;;9.13;;
9597;SDS011;4837;50.890;4.724;2023-03-01T11:43:03;10.80;;;9.45;;
9597;SDS011;4837;50.890;4.724;2023-03-01T11:45:35;9.73;;;8.70;;
9597;SDS011;4837;50.890;4.724;2023-03-01T11:48:07;11.00;;;9.10;;
9597;SDS011;4837;50.890;4.724;2023-03-01T11:50:42;11.55;;;9.45;;
9597;SDS011;4837;50.890;4.724;2023-03-01T12:06:41;10.57;;;8.55;;
9597;SDS011;4837;50.890;4.724;2023-03-01T12:17:15;9.85;;;8.85;;
9597;SDS011;4837;50.890;4.724;2023-03-01T12:24:50;9.82;;;8.80;;
9597;SDS011;4837;50.890;4.724;2023-03-01T12:45:27;11.05;;;9.10;;
9597;SDS011;4837;50.890;4.724;2023-03-01T12:50:53;10.75;;;9.40;;
9597;SDS011;4837;50.890;4.724;2023-03-01T12:55:46;10.93;;;8.25;;
9597;SDS011;4837;50.890;4.724;2023-03-01T13:03:38;9.90;;;8.68;;
9597;SDS011;4837;50.890;4.724;2023-03-01T13:11:04;13.40;;;10.63;;
9597;SDS011;4837;50.890;4.724;2023-03-01T13:13:31;19.98;;;12.32;;
9597;SDS011;4837;50.890;4.724;2023-03-01T13:15:57;12.82;;;11.13;;
9597;SDS011;4837;50.890;4.724;2023-03-01T13:18:43;12.43;;;9.52;;
9597;SDS011;4837;50.890;4.724;2023-03-01T13:21:09;11.07;;;9.40;;
9597;SDS011;4837;50.890;4.724;2023-03-01T13:23:37;14.07;;;10.25;;
9597;SDS011;4837;50.890;4.724;2023-03-01T13:28:40;11.40;;;9.25;;
9597;SDS011;4837;50.890;4.724;2023-03-01T13:31:07;12.15;;;9.20;;
9597;SDS011;4837;50.890;4.724;2023-03-01T13:33:53;11.63;;;8.95;;
9597;SDS011;4837;50.890;4.724;2023-03-01T13:39:01;12.13;;;9.18;;
9597;SDS011;4837;50.890;4.724;2023-03-01T13:44:13;11.43;;;9.18;;
9597;SDS011;4837;50.890;4.724;2023-03-01T13:46:43;11.93;;;8.75;;
9597;SDS011;4837;50.890;4.724;2023-03-01T13:49:11;11.45;;;8.80;;
9597;SDS011;4837;50.890;4.724;2023-03-01T13:51:40;10.18;;;8.95;;
9597;SDS011;4837;50.890;4.724;2023-03-01T13:54:09;12.60;;;9.60;;
9597;SDS011;4837;50.890;4.724;2023-03-01T13:56:37;9.80;;;8.65;;
9597;SDS011;4837;50.890;4.724;2023-03-01T13:59:22;10.95;;;9.48;;
9597;SDS011;4837;50.890;4.724;2023-03-01T14:01:55;11.52;;;9.52;;
9597;SDS011;4837;50.890;4.724;2023-03-01T14:04:26;11.25;;;8.88;;
9597;SDS011;4837;50.890;4.724;2023-03-01T14:07:17;12.63;;;9.70;;
9597;SDS011;4837;50.890;4.724;2023-03-01T14:09:40;11.20;;;9.00;;
9597;SDS011;4837;50.890;4.724;2023-03-01T14:17:41;14.25;;;9.38;;
9597;SDS011;4837;50.890;4.724;2023-03-01T14:22:40;9.82;;;8.32;;
9597;SDS011;4837;50.890;4.724;2023-03-01T14:25:24;13.00;;;8.43;;
9597;SDS011;4837;50.890;4.724;2023-03-01T14:30:27;10.45;;;8.70;;
9597;SDS011;4837;50.890;4.724;2023-03-01T14:32:57;9.95;;;8.52;;
9597;SDS011;4837;50.890;4.724;2023-03-01T14:35:25;13.77;;;9.88;;
9597;SDS011;4837;50.890;4.724;2023-03-01T14:37:52;12.13;;;8.55;;
9597;SDS011;4837;50.890;4.724;2023-03-01T14:42:47;9.98;;;8.40;;
9597;SDS011;4837;50.890;4.724;2023-03-01T14:45:13;9.45;;;7.18;;
9597;SDS011;4837;50.890;4.724;2023-03-01T14:47:40;10.48;;;8.45;;
9597;SDS011;4837;50.890;4.724;2023-03-01T14:52:42;12.48;;;8.35;;
9597;SDS011;4837;50.890;4.724;2023-03-01T14:55:16;8.68;;;7.78;;
9597;SDS011;4837;50.890;4.724;2023-03-01T14:57:44;9.85;;;7.53;;
9597;SDS011;4837;50.890;4.724;2023-03-01T15:00:13;7.88;;;6.88;;
9597;SDS011;4837;50.890;4.724;2023-03-01T15:02:41;9.25;;;8.13;;
9597;SDS011;4837;50.890;4.724;2023-03-01T15:05:08;7.82;;;7.03;;
9597;SDS011;4837;50.890;4.724;2023-03-01T15:07:41;9.75;;;7.88;;
9597;SDS011;4837;50.890;4.724;2023-03-01T15:10:35;10.70;;;7.43;;
9597;SDS011;4837;50.890;4.724;2023-03-01T15:13:10;8.77;;;6.78;;
9597;SDS011;4837;50.890;4.724;2023-03-01T15:18:04;9.00;;;7.57;;
9597;SDS011;4837;50.890;4.724;2023-03-01T15:20:30;9.85;;;7.78;;
9597;SDS011;4837;50.890;4.724;2023-03-01T15:23:00;11.15;;;7.75;;
9597;SDS011;4837;50.890;4.724;2023-03-01T15:25:27;10.13;;;7.68;;
9597;SDS011;4837;50.890;4.724;2023-03-01T15:27:55;9.38;;;7.38;;
9597;SDS011;4837;50.890;4.724;2023-03-01T15:30:23;11.00;;;7.82;;
9597;SDS011;4837;50.890;4.724;2023-03-01T15:33:15;9.25;;;7.53;;
9597;SDS011;4837;50.890;4.724;2023-03-01T15:35:44;10.07;;;7.72;;
9597;SDS011;4837;50.890;4.724;2023-03-01T15:38:26;10.23;;;7.93;;
9597;SDS011;4837;50.890;4.724;2023-03-01T15:40:52;11.52;;;8.02;;
9597;SDS011;4837;50.890;4.724;2023-03-01T15:43:39;8.90;;;7.15;;
9597;SDS011;4837;50.890;4.724;2023-03-01T15:46:05;10.23;;;7.70;;
9597;SDS011;4837;50.890;4.724;2023-03-01T15:48:31;13.43;;;7.90;;
9597;SDS011;4837;50.890;4.724;2023-03-01T15:50:58;10.25;;;7.40;;
9597;SDS011;4837;50.890;4.724;2023-03-01T15:53:24;10.50;;;7.53;;
9597;SDS011;4837;50.890;4.724;2023-03-01T15:55:53;11.57;;;7.53;;
9597;SDS011;4837;50.890;4.724;2023-03-01T15:58:20;9.50;;;7.22;;
9597;SDS011;4837;50.890;4.724;2023-03-01T16:00:47;10.57;;;7.30;;
9597;SDS011;4837;50.890;4.724;2023-03-01T16:03:16;9.15;;;6.68;;
9597;SDS011;4837;50.890;4.724;2023-03-01T16:05:46;9.15;;;7.15;;
9597;SDS011;4837;50.890;4.724;2023-03-01T16:08:13;7.88;;;7.07;;
9597;SDS011;4837;50.890;4.724;2023-03-01T16:10:40;8.30;;;6.72;;
9597;SDS011;4837;50.890;4.724;2023-03-01T16:13:06;10.93;;;7.20;;
9597;SDS011;4837;50.890;4.724;2023-03-01T16:15:33;17.90;;;8.73;;
9597;SDS011;4837;50.890;4.724;2023-03-01T16:18:00;9.55;;;7.18;;
9597;SDS011;4837;50.890;4.724;2023-03-01T16:20:27;11.35;;;8.98;;
9597;SDS011;4837;50.890;4.724;2023-03-01T16:22:54;10.45;;;7.53;;
9597;SDS011;4837;50.890;4.724;2023-03-01T16:25:21;10.27;;;8.30;;
9597;SDS011;4837;50.890;4.724;2023-03-01T16:27:48;9.98;;;7.38;;
9597;SDS011;4837;50.890;4.724;2023-03-01T16:30:15;8.52;;;6.97;;
9597;SDS011;4837;50.890;4.724;2023-03-01T16:32:43;8.30;;;6.80;;
9597;SDS011;4837;50.890;4.724;2023-03-01T16:35:09;10.38;;;6.97;;
9597;SDS011;4837;50.890;4.724;2023-03-01T16:37:36;9.40;;;7.22;;
9597;SDS011;4837;50.890;4.724;2023-03-01T16:40:03;10.75;;;7.35;;
9597;SDS011;4837;50.890;4.724;2023-03-01T16:42:35;8.20;;;7.40;;
9597;SDS011;4837;50.890;4.724;2023-03-01T16:45:02;10.52;;;7.32;;
9597;SDS011;4837;50.890;4.724;2023-03-01T16:47:28;9.77;;;7.55;;
9597;SDS011;4837;50.890;4.724;2023-03-01T16:49:54;8.52;;;7.18;;
9597;SDS011;4837;50.890;4.724;2023-03-01T16:52:21;9.63;;;7.47;;
9597;SDS011;4837;50.890;4.724;2023-03-01T16:54:48;9.32;;;7.60;;
9597;SDS011;4837;50.890;4.724;2023-03-01T16:57:14;8.70;;;6.75;;
9597;SDS011;4837;50.890;4.724;2023-03-01T16:59:41;7.93;;;6.70;;